createdAt,value
2023-01-17T00:00:47.995Z,0.00
2023-01-17T00:01:47.957Z,0.00
2023-01-17T00:02:48.001Z,0.00
2023-01-17T00:03:47.954Z,0.00
2023-01-17T00:04:47.934Z,0.00
2023-01-17T00:05:47.916Z,0.00
2023-01-17T00:06:47.926Z,0.00
2023-01-17T00:07:47.900Z,0.00
2023-01-17T00:08:47.877Z,0.00
2023-01-17T00:09:47.876Z,0.00
2023-01-17T00:10:47.859Z,0.00
2023-01-17T00:11:47.844Z,0.00
2023-01-17T00:12:47.861Z,0.00
2023-01-17T00:13:47.837Z,0.00
2023-01-17T00:14:47.813Z,0.00
2023-01-17T00:15:47.835Z,0.00
2023-01-17T00:16:47.786Z,0.00
2023-01-17T00:17:47.799Z,0.00
2023-01-17T00:18:47.796Z,0.00
2023-01-17T00:19:47.756Z,0.00
2023-01-17T00:20:47.747Z,0.00
2023-01-17T00:21:47.745Z,0.00
2023-01-17T00:22:47.725Z,0.00
2023-01-17T00:23:47.714Z,0.00
2023-01-17T00:24:47.746Z,0.00
2023-01-17T00:25:47.693Z,0.00
2023-01-17T00:26:47.676Z,0.00
2023-01-17T00:27:47.673Z,0.00
2023-01-17T00:28:47.686Z,0.00
2023-01-17T00:29:47.644Z,0.00
2023-01-17T00:30:47.653Z,0.00
2023-01-17T00:31:47.690Z,0.00
2023-01-17T00:32:47.616Z,0.00
2023-01-17T00:33:47.607Z,0.00
2023-01-17T00:34:47.604Z,0.00
2023-01-17T00:35:47.604Z,0.00
2023-01-17T00:36:47.564Z,0.00
2023-01-17T00:37:47.562Z,0.00
2023-01-17T00:38:47.543Z,0.00
2023-01-17T00:39:47.563Z,0.00
2023-01-17T00:40:47.546Z,0.00
2023-01-17T00:41:47.525Z,0.00
2023-01-17T00:42:47.514Z,0.00
2023-01-17T00:43:47.492Z,0.00
2023-01-17T00:44:47.485Z,0.00
2023-01-17T00:45:47.462Z,0.00
2023-01-17T00:46:47.481Z,0.00
2023-01-17T00:47:47.446Z,0.00
2023-01-17T00:48:47.432Z,0.00
2023-01-17T00:49:47.431Z,0.00
2023-01-17T00:50:47.411Z,0.00
2023-01-17T00:51:47.409Z,0.00
2023-01-17T00:52:47.414Z,0.00
2023-01-17T00:53:47.407Z,0.00
2023-01-17T00:54:47.372Z,0.00
2023-01-17T00:55:47.364Z,0.00
2023-01-17T00:56:47.341Z,0.00
2023-01-17T00:57:47.362Z,0.00
2023-01-17T00:58:47.322Z,0.00
2023-01-17T00:59:47.313Z,0.00
2023-01-17T01:00:47.383Z,0.00
2023-01-17T01:01:47.453Z,0.00
2023-01-17T01:02:47.341Z,0.00
2023-01-17T01:03:47.309Z,0.00
2023-01-17T01:04:47.261Z,0.00
2023-01-17T01:05:47.251Z,0.00
2023-01-17T01:06:47.233Z,0.00
2023-01-17T01:07:47.244Z,0.00
2023-01-17T01:08:47.243Z,0.00
2023-01-17T01:09:47.201Z,0.00
2023-01-17T01:10:47.191Z,0.00
2023-01-17T01:11:47.189Z,0.00
2023-01-17T01:12:47.169Z,0.00
2023-01-17T01:13:47.166Z,0.00
2023-01-17T01:14:47.160Z,0.00
2023-01-17T01:15:47.140Z,0.00
2023-01-17T01:16:47.129Z,0.00
2023-01-17T01:17:47.122Z,0.00
2023-01-17T01:18:47.111Z,0.00
2023-01-17T01:19:47.118Z,0.00
2023-01-17T01:20:47.085Z,0.00
2023-01-17T01:21:47.081Z,0.00
2023-01-17T01:22:47.061Z,0.00
2023-01-17T01:23:47.052Z,0.00
2023-01-17T01:24:47.045Z,0.00
2023-01-17T01:25:47.050Z,0.00
2023-01-17T01:26:47.018Z,0.00
2023-01-17T01:27:47.012Z,0.00
2023-01-17T01:28:46.997Z,0.00
2023-01-17T01:29:46.991Z,0.00
2023-01-17T01:30:47.008Z,0.00
2023-01-17T01:31:47.028Z,0.00
2023-01-17T01:32:46.949Z,0.00
2023-01-17T01:33:46.943Z,0.00
2023-01-17T01:34:46.928Z,0.00
2023-01-17T01:35:46.942Z,0.00
2023-01-17T01:36:46.922Z,0.00
2023-01-17T01:37:46.899Z,0.00
2023-01-17T01:38:46.882Z,0.00
2023-01-17T01:39:46.877Z,0.00
2023-01-17T01:40:46.882Z,0.00
2023-01-17T01:41:46.878Z,0.00
2023-01-17T01:42:46.840Z,0.00
2023-01-17T01:43:46.903Z,0.00
2023-01-17T01:44:46.820Z,0.00
2023-01-17T01:45:46.851Z,0.00
2023-01-17T01:46:46.808Z,0.00
2023-01-17T01:47:46.807Z,0.00
2023-01-17T01:48:46.778Z,0.00
2023-01-17T01:49:46.768Z,0.00
2023-01-17T01:50:46.759Z,0.00
2023-01-17T01:51:46.749Z,0.00
2023-01-17T01:52:46.759Z,0.00
2023-01-17T01:53:46.728Z,0.00
2023-01-17T01:54:46.722Z,0.00
2023-01-17T01:55:46.704Z,0.00
2023-01-17T01:56:46.692Z,0.00
2023-01-17T01:57:46.688Z,0.00
2023-01-17T01:58:46.686Z,0.00
2023-01-17T01:59:46.658Z,0.00
2023-01-17T02:00:46.764Z,0.00
2023-01-17T02:01:46.711Z,0.00
2023-01-17T02:02:46.627Z,0.00
2023-01-17T02:03:46.691Z,0.00
2023-01-17T02:04:46.597Z,0.00
2023-01-17T02:05:46.607Z,0.00
2023-01-17T02:06:46.590Z,0.00
2023-01-17T02:07:46.583Z,0.00
2023-01-17T02:08:46.570Z,0.00
2023-01-17T02:09:46.589Z,0.00
2023-01-17T02:10:46.559Z,0.00
2023-01-17T02:11:46.525Z,0.00
2023-01-17T02:12:46.526Z,0.00
2023-01-17T02:13:46.513Z,0.00
2023-01-17T02:14:46.526Z,0.00
2023-01-17T02:15:46.486Z,0.00
2023-01-17T02:16:46.548Z,0.00
2023-01-17T02:17:46.473Z,0.00
2023-01-17T02:18:46.446Z,0.00
2023-01-17T02:19:46.446Z,0.00
2023-01-17T02:20:46.448Z,0.00
2023-01-17T02:21:46.416Z,0.00
2023-01-17T02:22:46.410Z,0.00
2023-01-17T02:23:46.410Z,0.00
2023-01-17T02:24:46.387Z,0.00
2023-01-17T02:25:46.421Z,0.00
2023-01-17T02:26:46.370Z,0.00
2023-01-17T02:27:46.347Z,0.00
2023-01-17T02:28:46.344Z,0.00
2023-01-17T02:29:53.411Z,0.00
2023-01-17T02:30:46.319Z,0.00
2023-01-17T02:31:46.404Z,0.00
2023-01-17T02:32:46.300Z,0.00
2023-01-17T02:33:46.296Z,0.00
2023-01-17T02:34:46.278Z,0.00
2023-01-17T02:35:46.269Z,0.00
2023-01-17T02:36:46.248Z,0.00
2023-01-17T02:37:46.269Z,0.00
2023-01-17T02:38:46.227Z,0.00
2023-01-17T02:39:46.217Z,0.00
2023-01-17T02:40:46.207Z,0.00
2023-01-17T02:41:46.197Z,0.00
2023-01-17T02:42:46.181Z,0.00
2023-01-17T02:43:46.213Z,0.00
2023-01-17T02:44:46.163Z,0.00
2023-01-17T02:45:46.172Z,0.00
2023-01-17T02:46:46.139Z,0.00
2023-01-17T02:47:46.128Z,0.00
2023-01-17T02:48:46.117Z,0.00
2023-01-17T02:49:46.128Z,0.00
2023-01-17T02:50:46.096Z,0.00
2023-01-17T02:51:46.088Z,0.00
2023-01-17T02:52:46.077Z,0.00
2023-01-17T02:53:46.075Z,0.00
2023-01-17T02:54:46.050Z,0.00
2023-01-17T02:55:46.057Z,0.00
2023-01-17T02:56:46.036Z,0.00
2023-01-17T02:57:46.016Z,0.00
2023-01-17T02:58:46.006Z,0.00
2023-01-17T02:59:45.998Z,0.00
2023-01-17T03:00:46.062Z,0.00
2023-01-17T03:01:46.081Z,0.00
2023-01-17T03:02:46.038Z,0.00
2023-01-17T03:03:45.957Z,0.00
2023-01-17T03:04:45.992Z,0.00
2023-01-17T03:05:45.927Z,0.00
2023-01-17T03:06:45.925Z,0.00
2023-01-17T03:07:45.908Z,0.00
2023-01-17T03:08:45.894Z,0.00
2023-01-17T03:09:45.906Z,0.00
2023-01-17T03:10:45.876Z,0.00
2023-01-17T03:11:45.886Z,0.00
2023-01-17T03:12:45.847Z,0.00
2023-01-17T03:13:45.835Z,0.00
2023-01-17T03:14:45.823Z,0.00
2023-01-17T03:15:45.834Z,0.00
2023-01-17T03:16:45.828Z,0.00
2023-01-17T03:17:45.815Z,0.00
2023-01-17T03:18:45.785Z,0.00
2023-01-17T03:19:45.774Z,0.00
2023-01-17T03:20:45.770Z,0.00
2023-01-17T03:21:45.764Z,0.00
2023-01-17T03:22:45.740Z,0.00
2023-01-17T03:23:45.746Z,0.00
2023-01-17T03:24:45.722Z,0.00
2023-01-17T03:25:45.744Z,0.00
2023-01-17T03:26:45.693Z,0.00
2023-01-17T03:27:45.688Z,0.00
2023-01-17T03:28:45.705Z,0.00
2023-01-17T03:29:45.663Z,0.00
2023-01-17T03:30:45.676Z,0.00
2023-01-17T03:31:45.633Z,0.00
2023-01-17T03:32:45.622Z,0.00
2023-01-17T03:33:45.613Z,0.00
2023-01-17T03:34:45.634Z,0.00
2023-01-17T03:35:45.632Z,0.00
2023-01-17T03:36:45.575Z,0.00
2023-01-17T03:37:45.566Z,0.00
2023-01-17T03:38:45.554Z,0.00
2023-01-17T03:39:45.550Z,0.00
2023-01-17T03:40:45.554Z,0.00
2023-01-17T03:41:45.556Z,0.00
2023-01-17T03:42:45.502Z,0.00
2023-01-17T03:43:45.504Z,0.00
2023-01-17T03:44:45.510Z,0.00
2023-01-17T03:45:45.551Z,0.00
2023-01-17T03:46:45.523Z,0.00
2023-01-17T03:47:45.452Z,0.00
2023-01-17T03:48:45.443Z,0.00
2023-01-17T03:49:45.433Z,0.00
2023-01-17T03:50:45.438Z,0.00
2023-01-17T03:51:45.442Z,0.00
2023-01-17T03:52:45.401Z,0.00
2023-01-17T03:53:45.383Z,0.00
2023-01-17T03:54:45.387Z,0.00
2023-01-17T03:55:45.363Z,0.00
2023-01-17T03:56:45.353Z,0.00
2023-01-17T03:57:45.365Z,0.00
2023-01-17T03:58:45.350Z,0.00
2023-01-17T03:59:45.343Z,0.00
2023-01-17T04:00:45.395Z,0.00
2023-01-17T04:01:45.455Z,0.00
2023-01-17T04:02:45.367Z,0.00
2023-01-17T04:03:45.297Z,0.00
2023-01-17T04:04:45.275Z,0.00
2023-01-17T04:05:45.251Z,0.00
2023-01-17T04:06:45.250Z,0.00
2023-01-17T04:07:45.231Z,0.00
2023-01-17T04:08:45.221Z,0.00
2023-01-17T04:09:45.234Z,0.00
2023-01-17T04:10:45.200Z,0.00
2023-01-17T04:11:45.184Z,0.00
2023-01-17T04:12:45.181Z,0.00
2023-01-17T04:13:45.164Z,0.00
2023-01-17T04:14:45.171Z,0.00
2023-01-17T04:15:45.167Z,0.00
2023-01-17T04:16:45.195Z,0.00
2023-01-17T04:17:45.111Z,0.00
2023-01-17T04:18:45.130Z,0.00
2023-01-17T04:19:45.112Z,0.00
2023-01-17T04:20:45.099Z,0.00
2023-01-17T04:21:45.082Z,0.00
2023-01-17T04:22:45.060Z,0.00
2023-01-17T04:23:45.060Z,0.00
2023-01-17T04:24:45.062Z,0.00
2023-01-17T04:25:45.052Z,0.00
2023-01-17T04:26:45.020Z,0.00
2023-01-17T04:27:45.000Z,0.00
2023-01-17T04:28:44.991Z,0.00
2023-01-17T04:29:46.725Z,0.00
2023-01-17T04:30:45.072Z,0.00
2023-01-17T04:31:45.044Z,0.00
2023-01-17T04:32:44.950Z,0.00
2023-01-17T04:33:44.959Z,0.00
2023-01-17T04:34:44.929Z,0.00
2023-01-17T04:35:44.921Z,0.00
2023-01-17T04:36:44.911Z,0.00
2023-01-17T04:37:44.920Z,0.00
2023-01-17T04:38:44.891Z,0.00
2023-01-17T04:39:44.879Z,0.00
2023-01-17T04:40:44.860Z,0.00
2023-01-17T04:41:44.848Z,0.00
2023-01-17T04:42:44.871Z,0.00
2023-01-17T04:43:44.838Z,0.00
2023-01-17T04:44:44.822Z,0.00
2023-01-17T04:45:44.808Z,0.00
2023-01-17T04:46:44.794Z,0.00
2023-01-17T04:47:44.779Z,0.00
2023-01-17T04:48:44.767Z,0.00
2023-01-17T04:49:44.789Z,0.00
2023-01-17T04:50:44.750Z,0.00
2023-01-17T04:51:44.748Z,0.00
2023-01-17T04:52:44.737Z,0.00
2023-01-17T04:53:44.764Z,0.00
2023-01-17T04:54:44.720Z,0.00
2023-01-17T04:55:44.798Z,0.00
2023-01-17T04:56:44.687Z,0.00
2023-01-17T04:57:44.677Z,0.00
2023-01-17T04:58:44.667Z,0.00
2023-01-17T04:59:44.667Z,0.00
2023-01-17T05:00:44.658Z,0.00
2023-01-17T05:01:44.678Z,0.00
2023-01-17T05:02:44.698Z,0.00
2023-01-17T05:03:44.608Z,0.00
2023-01-17T05:04:44.586Z,0.00
2023-01-17T05:05:44.702Z,0.00
2023-01-17T05:06:44.593Z,0.00
2023-01-17T05:07:44.555Z,0.00
2023-01-17T05:08:44.547Z,0.00
2023-01-17T05:09:44.535Z,0.00
2023-01-17T05:10:44.526Z,0.00
2023-01-17T05:11:44.536Z,0.00
2023-01-17T05:12:44.505Z,0.00
2023-01-17T05:13:44.485Z,0.00
2023-01-17T05:14:44.475Z,0.00
2023-01-17T05:15:44.478Z,0.00
2023-01-17T05:16:44.465Z,0.00
2023-01-17T05:17:44.520Z,0.00
2023-01-17T05:18:44.435Z,0.00
2023-01-17T05:19:44.434Z,0.00
2023-01-17T05:20:44.415Z,0.00
2023-01-17T05:21:44.402Z,0.00
2023-01-17T05:22:44.384Z,0.00
2023-01-17T05:23:44.393Z,0.00
2023-01-17T05:24:44.365Z,0.00
2023-01-17T05:25:44.522Z,0.00
2023-01-17T05:26:44.344Z,0.00
2023-01-17T05:27:44.335Z,0.00
2023-01-17T05:28:44.353Z,0.00
2023-01-17T05:29:44.305Z,0.00
2023-01-17T05:30:44.369Z,0.00
2023-01-17T05:31:44.283Z,0.00
2023-01-17T05:32:44.282Z,0.00
2023-01-17T05:33:44.265Z,0.00
2023-01-17T05:34:44.299Z,0.00
2023-01-17T05:35:44.243Z,0.00
2023-01-17T05:36:44.241Z,0.00
2023-01-17T05:37:44.255Z,0.00
2023-01-17T05:38:44.213Z,0.00
2023-01-17T05:39:44.197Z,0.00
2023-01-17T05:40:44.212Z,0.00
2023-01-17T05:41:44.173Z,0.00
2023-01-17T05:42:44.162Z,0.00
2023-01-17T05:43:44.152Z,0.00
2023-01-17T05:44:44.150Z,0.00
2023-01-17T05:45:44.164Z,0.00
2023-01-17T05:46:44.138Z,0.00
2023-01-17T05:47:44.115Z,0.00
2023-01-17T05:48:44.112Z,0.00
2023-01-17T05:49:45.930Z,0.00
2023-01-17T05:50:44.081Z,0.00
2023-01-17T05:51:44.083Z,0.00
2023-01-17T05:52:44.073Z,0.00
2023-01-17T05:53:44.043Z,0.00
2023-01-17T05:54:44.045Z,0.00
2023-01-17T05:55:44.027Z,0.00
2023-01-17T05:56:44.027Z,0.00
2023-01-17T05:57:44.023Z,0.00
2023-01-17T05:58:43.992Z,0.00
2023-01-17T05:59:43.986Z,0.00
2023-01-17T06:00:43.972Z,0.00
2023-01-17T06:01:43.962Z,0.00
2023-01-17T06:02:43.989Z,0.00
2023-01-17T06:03:43.952Z,0.00
2023-01-17T06:04:43.981Z,0.00
2023-01-17T06:05:43.916Z,0.00
2023-01-17T06:06:43.900Z,0.00
2023-01-17T06:07:43.890Z,0.00
2023-01-17T06:08:43.903Z,0.00
2023-01-17T06:09:43.871Z,0.00
2023-01-17T06:10:43.859Z,0.00
2023-01-17T06:11:43.844Z,0.00
2023-01-17T06:12:43.840Z,0.00
2023-01-17T06:13:43.823Z,0.00
2023-01-17T06:14:43.841Z,0.00
2023-01-17T06:15:43.842Z,0.00
2023-01-17T06:16:43.792Z,0.00
2023-01-17T06:17:43.834Z,0.00
2023-01-17T06:18:43.782Z,0.00
2023-01-17T06:19:43.759Z,0.00
2023-01-17T06:20:43.776Z,0.00
2023-01-17T06:21:43.739Z,0.00
2023-01-17T06:22:43.731Z,0.00
2023-01-17T06:23:43.713Z,0.00
2023-01-17T06:24:43.707Z,0.00
2023-01-17T06:25:43.737Z,0.00
2023-01-17T06:26:43.708Z,0.00
2023-01-17T06:27:43.673Z,0.00
2023-01-17T06:28:43.658Z,0.00
2023-01-17T06:29:43.648Z,0.00
2023-01-17T06:30:43.654Z,0.00
2023-01-17T06:31:43.636Z,0.00
2023-01-17T06:32:43.628Z,0.00
2023-01-17T06:33:43.607Z,0.00
2023-01-17T06:34:43.604Z,0.00
2023-01-17T06:35:43.620Z,0.00
2023-01-17T06:36:43.577Z,0.00
2023-01-17T06:37:43.607Z,0.00
2023-01-17T06:38:43.548Z,0.00
2023-01-17T06:39:44.115Z,4.00
2023-01-17T06:40:43.540Z,4.00
2023-01-17T06:41:43.517Z,0.00
2023-01-17T06:42:43.519Z,4.00
2023-01-17T06:43:43.508Z,4.00
2023-01-17T06:44:43.496Z,4.00
2023-01-17T06:45:43.486Z,4.00
2023-01-17T06:46:43.554Z,4.00
2023-01-17T06:47:43.450Z,4.00
2023-01-17T06:48:43.467Z,8.00
2023-01-17T06:49:43.425Z,8.00
2023-01-17T06:50:43.492Z,8.00
2023-01-17T06:51:43.785Z,12.00
2023-01-17T06:52:43.396Z,12.00
2023-01-17T06:53:43.387Z,12.00
2023-01-17T06:54:43.386Z,20.00
2023-01-17T06:55:43.365Z,24.00
2023-01-17T06:56:43.354Z,24.00
2023-01-17T06:57:43.335Z,32.00
2023-01-17T06:58:43.325Z,36.00
2023-01-17T06:59:43.345Z,40.00
2023-01-17T07:00:43.348Z,48.00
2023-01-17T07:01:43.319Z,56.00
2023-01-17T07:02:43.285Z,64.00
2023-01-17T07:03:43.351Z,72.00
2023-01-17T07:04:43.265Z,80.00
2023-01-17T07:05:43.267Z,88.00
2023-01-17T07:06:43.243Z,100.00
2023-01-17T07:07:43.225Z,112.00
2023-01-17T07:08:43.235Z,124.00
2023-01-17T07:09:43.204Z,136.00
2023-01-17T07:10:43.219Z,148.00
2023-01-17T07:11:43.183Z,168.00
2023-01-17T07:12:43.173Z,188.00
2023-01-17T07:13:43.171Z,208.00
2023-01-17T07:14:43.154Z,228.00
2023-01-17T07:15:43.155Z,252.00
2023-01-17T07:16:43.149Z,280.00
2023-01-17T07:17:43.113Z,304.00
2023-01-17T07:18:43.103Z,332.00
2023-01-17T07:19:43.166Z,360.00
2023-01-17T07:20:43.082Z,388.00
2023-01-17T07:21:43.116Z,416.00
2023-01-17T07:22:43.064Z,444.00
2023-01-17T07:23:43.051Z,476.00
2023-01-17T07:24:43.051Z,508.00
2023-01-17T07:25:43.039Z,548.00
2023-01-17T07:26:43.026Z,592.00
2023-01-17T07:27:43.023Z,632.00
2023-01-17T07:28:43.002Z,676.00
2023-01-17T07:29:42.984Z,728.00
2023-01-17T07:30:42.972Z,792.00
2023-01-17T07:31:42.990Z,852.00
2023-01-17T07:32:42.973Z,912.00
2023-01-17T07:33:42.942Z,968.00
2023-01-17T07:34:42.943Z,1020.00
2023-01-17T07:35:42.934Z,1076.00
2023-01-17T07:36:42.912Z,1132.00
2023-01-17T07:37:42.891Z,1196.00
2023-01-17T07:38:42.967Z,1248.00
2023-01-17T07:39:42.895Z,1288.00
2023-01-17T07:40:42.863Z,1340.00
2023-01-17T07:41:42.860Z,1408.00
2023-01-17T07:42:42.840Z,1480.00
2023-01-17T07:43:42.831Z,1560.00
2023-01-17T07:44:42.842Z,1636.00
2023-01-17T07:45:42.813Z,1712.00
2023-01-17T07:46:42.883Z,1796.00
2023-01-17T07:47:42.796Z,1880.00
2023-01-17T07:48:42.785Z,2000.00
2023-01-17T07:49:42.762Z,2156.00
2023-01-17T07:50:42.773Z,2408.00
2023-01-17T07:51:42.744Z,2700.00
2023-01-17T07:52:42.742Z,2868.00
2023-01-17T07:53:42.722Z,2860.00
2023-01-17T07:54:42.711Z,2568.00
2023-01-17T07:55:42.780Z,2376.00
2023-01-17T07:56:42.692Z,3072.00
2023-01-17T07:57:42.672Z,4108.00
2023-01-17T07:58:42.669Z,4544.00
2023-01-17T07:59:42.659Z,4540.00
2023-01-17T08:00:42.693Z,4628.00
2023-01-17T08:01:42.716Z,4944.00
2023-01-17T08:02:42.619Z,5036.00
2023-01-17T08:03:42.662Z,5128.00
2023-01-17T08:04:42.609Z,5276.00
2023-01-17T08:05:42.660Z,5404.00
2023-01-17T08:06:42.605Z,5504.00
2023-01-17T08:07:42.568Z,5612.00
2023-01-17T08:08:42.548Z,5720.00
2023-01-17T08:09:42.554Z,5812.00
2023-01-17T08:10:42.529Z,5940.00
2023-01-17T08:11:42.538Z,5976.00
2023-01-17T08:12:42.528Z,4836.00
2023-01-17T08:13:42.506Z,4548.00
2023-01-17T08:14:42.487Z,4948.00
2023-01-17T08:15:42.479Z,5744.00
2023-01-17T08:16:42.533Z,6468.00
2023-01-17T08:17:42.457Z,6724.00
2023-01-17T08:18:42.458Z,6896.00
2023-01-17T08:19:42.434Z,7048.00
2023-01-17T08:20:42.418Z,7044.00
2023-01-17T08:21:42.408Z,7024.00
2023-01-17T08:22:42.404Z,7120.00
2023-01-17T08:23:42.387Z,7304.00
2023-01-17T08:24:42.388Z,7376.00
2023-01-17T08:25:42.367Z,7324.00
2023-01-17T08:26:42.348Z,7120.00
2023-01-17T08:27:42.343Z,7288.00
2023-01-17T08:28:42.346Z,7296.00
2023-01-17T08:29:42.346Z,7444.00
2023-01-17T08:30:42.308Z,7652.00
2023-01-17T08:31:42.323Z,7808.00
2023-01-17T08:32:42.313Z,7848.00
2023-01-17T08:33:42.286Z,7940.00
2023-01-17T08:34:42.258Z,8088.00
2023-01-17T08:35:42.276Z,8016.00
2023-01-17T08:36:42.237Z,7916.00
2023-01-17T08:37:42.229Z,7924.00
2023-01-17T08:38:42.223Z,8004.00
2023-01-17T08:39:42.262Z,8056.00
2023-01-17T08:40:43.181Z,8124.00
2023-01-17T08:41:42.237Z,8168.00
2023-01-17T08:42:42.167Z,8260.00
2023-01-17T08:43:42.171Z,8380.00
2023-01-17T08:44:42.146Z,8728.00
2023-01-17T08:45:42.170Z,8972.00
2023-01-17T08:46:42.132Z,9212.00
2023-01-17T08:47:42.137Z,9444.00
2023-01-17T08:48:42.106Z,10156.00
2023-01-17T08:49:42.097Z,11008.00
2023-01-17T08:50:42.087Z,11916.00
2023-01-17T08:51:42.068Z,12460.00
2023-01-17T08:52:42.076Z,12856.00
2023-01-17T08:53:42.058Z,12284.00
2023-01-17T08:54:42.040Z,12472.00
2023-01-17T08:55:42.051Z,12676.00
2023-01-17T08:56:42.009Z,13440.00
2023-01-17T08:57:42.006Z,14400.00
2023-01-17T08:58:42.013Z,16128.00
2023-01-17T08:59:41.987Z,18016.00
2023-01-17T09:00:41.984Z,19968.00
2023-01-17T09:01:42.221Z,20192.00
2023-01-17T09:02:41.950Z,19072.00
2023-01-17T09:03:41.970Z,17504.00
2023-01-17T09:04:41.976Z,15968.00
2023-01-17T09:05:41.925Z,14944.00
2023-01-17T09:06:41.896Z,14400.00
2023-01-17T09:07:41.915Z,14208.00
2023-01-17T09:08:41.878Z,14144.00
2023-01-17T09:09:41.878Z,13740.00
2023-01-17T09:10:41.878Z,13000.00
2023-01-17T09:11:41.876Z,13088.00
2023-01-17T09:12:41.837Z,13552.00
2023-01-17T09:13:41.828Z,13464.00
2023-01-17T09:14:41.830Z,13592.00
2023-01-17T09:15:48.870Z,13560.00
2023-01-17T09:16:41.821Z,13376.00
2023-01-17T09:17:41.809Z,12796.00
2023-01-17T09:18:41.785Z,12704.00
2023-01-17T09:19:42.360Z,12996.00
2023-01-17T09:20:41.751Z,13212.00
2023-01-17T09:21:41.754Z,13476.00
2023-01-17T09:22:41.724Z,13496.00
2023-01-17T09:23:41.717Z,13888.00
2023-01-17T09:24:41.698Z,13956.00
2023-01-17T09:25:41.758Z,13604.00
2023-01-17T09:26:41.695Z,13788.00
2023-01-17T09:27:41.664Z,14232.00
2023-01-17T09:28:41.654Z,14848.00
2023-01-17T09:29:41.652Z,15008.00
2023-01-17T09:30:41.668Z,14976.00
2023-01-17T09:31:41.630Z,15168.00
2023-01-17T09:32:41.627Z,15136.00
2023-01-17T09:33:41.609Z,15200.00
2023-01-17T09:34:41.589Z,14848.00
2023-01-17T09:35:41.585Z,10520.00
2023-01-17T09:36:41.565Z,5312.00
2023-01-17T09:37:41.556Z,4384.00
2023-01-17T09:38:41.570Z,4088.00
2023-01-17T09:39:41.535Z,3752.00
2023-01-17T09:40:41.516Z,3612.00
2023-01-17T09:41:41.506Z,3580.00
2023-01-17T09:42:41.497Z,3580.00
2023-01-17T09:43:41.485Z,3592.00
2023-01-17T09:44:41.488Z,3600.00
2023-01-17T09:45:41.486Z,3616.00
2023-01-17T09:46:41.445Z,3624.00
2023-01-17T09:47:41.445Z,3636.00
2023-01-17T09:48:41.426Z,3644.00
2023-01-17T09:49:41.445Z,3656.00
2023-01-17T09:50:41.414Z,3664.00
2023-01-17T09:51:41.403Z,3668.00
2023-01-17T09:52:41.385Z,3676.00
2023-01-17T09:53:41.376Z,3680.00
2023-01-17T09:54:41.368Z,3684.00
2023-01-17T09:55:41.378Z,3696.00
2023-01-17T09:56:41.338Z,3700.00
2023-01-17T09:57:41.325Z,3704.00
2023-01-17T09:58:41.322Z,3712.00
2023-01-17T09:59:44.337Z,3716.00
2023-01-17T10:00:41.309Z,3724.00
2023-01-17T10:01:41.458Z,3728.00
2023-01-17T10:02:41.373Z,3732.00
2023-01-17T10:03:41.416Z,3736.00
2023-01-17T10:04:41.281Z,3744.00
2023-01-17T10:05:41.246Z,3748.00
2023-01-17T10:06:41.226Z,3752.00
2023-01-17T10:07:41.236Z,3756.00
2023-01-17T10:08:41.211Z,3764.00
2023-01-17T10:09:41.194Z,3772.00
2023-01-17T10:10:41.189Z,3780.00
2023-01-17T10:11:41.175Z,3784.00
2023-01-17T10:12:41.160Z,3788.00
2023-01-17T10:13:41.164Z,3796.00
2023-01-17T10:14:41.135Z,3804.00
2023-01-17T10:15:41.134Z,3816.00
2023-01-17T10:16:41.149Z,3820.00
2023-01-17T10:17:41.146Z,3832.00
2023-01-17T10:18:41.084Z,3844.00
2023-01-17T10:19:41.094Z,3860.00
2023-01-17T10:20:41.071Z,3872.00
2023-01-17T10:21:41.054Z,3888.00
2023-01-17T10:22:41.043Z,3900.00
2023-01-17T10:23:41.037Z,3912.00
2023-01-17T10:24:41.045Z,3936.00
2023-01-17T10:25:41.018Z,3960.00
2023-01-17T10:26:40.994Z,3976.00
2023-01-17T10:27:40.998Z,3980.00
2023-01-17T10:28:40.975Z,4012.00
2023-01-17T10:29:40.964Z,4056.00
2023-01-17T10:30:41.082Z,4260.00
2023-01-17T10:31:40.950Z,4480.00
2023-01-17T10:32:40.934Z,4580.00
2023-01-17T10:33:40.914Z,4916.00
2023-01-17T10:34:40.902Z,5288.00
2023-01-17T10:35:40.907Z,5440.00
2023-01-17T10:36:40.917Z,5564.00
2023-01-17T10:37:40.874Z,5616.00
2023-01-17T10:38:41.807Z,5704.00
2023-01-17T10:39:40.843Z,5960.00
2023-01-17T10:40:40.837Z,6160.00
2023-01-17T10:41:40.822Z,5804.00
2023-01-17T10:42:40.823Z,6076.00
2023-01-17T10:43:40.805Z,6604.00
2023-01-17T10:44:40.807Z,6288.00
2023-01-17T10:45:40.783Z,5952.00
2023-01-17T10:46:40.762Z,5808.00
2023-01-17T10:47:40.804Z,5768.00
2023-01-17T10:48:40.742Z,5840.00
2023-01-17T10:49:40.733Z,5892.00
2023-01-17T10:50:40.733Z,6112.00
2023-01-17T10:51:40.717Z,6104.00
2023-01-17T10:52:40.692Z,5820.00
2023-01-17T10:53:40.703Z,5644.00
2023-01-17T10:54:40.677Z,5752.00
2023-01-17T10:55:40.673Z,5580.00
2023-01-17T10:56:40.659Z,5428.00
2023-01-17T10:57:40.643Z,5444.00
2023-01-17T10:58:40.653Z,5532.00
2023-01-17T10:59:40.622Z,5384.00
2023-01-17T11:00:40.604Z,5252.00
2023-01-17T11:01:40.677Z,5116.00
2023-01-17T11:02:40.596Z,5056.00
2023-01-17T11:03:40.584Z,5192.00
2023-01-17T11:04:40.588Z,5512.00
2023-01-17T11:05:40.562Z,5572.00
2023-01-17T11:06:53.298Z,5328.00
2023-01-17T11:07:41.534Z,5292.00
2023-01-17T11:08:40.517Z,5216.00
2023-01-17T11:09:40.502Z,5056.00
2023-01-17T11:10:40.522Z,5116.00
2023-01-17T11:11:40.491Z,5052.00
2023-01-17T11:12:40.471Z,4924.00
2023-01-17T11:13:40.465Z,4924.00
2023-01-17T11:14:40.456Z,5044.00
2023-01-17T11:15:40.482Z,5176.00
2023-01-17T11:16:40.442Z,5356.00
2023-01-17T11:17:40.422Z,5496.00
2023-01-17T11:18:40.410Z,5520.00
2023-01-17T11:19:40.396Z,5812.00
2023-01-17T11:20:40.390Z,6228.00
2023-01-17T11:21:40.413Z,6496.00
2023-01-17T11:22:40.364Z,6316.00
2023-01-17T11:23:40.351Z,5924.00
2023-01-17T11:24:40.331Z,5856.00
2023-01-17T11:25:40.373Z,6860.00
2023-01-17T11:26:40.311Z,6920.00
2023-01-17T11:27:40.324Z,7076.00
2023-01-17T11:28:40.291Z,6860.00
2023-01-17T11:29:40.284Z,5664.00
2023-01-17T11:30:40.291Z,5636.00
2023-01-17T11:31:40.261Z,5748.00
2023-01-17T11:32:40.242Z,5948.00
2023-01-17T11:33:40.262Z,6120.00
2023-01-17T11:34:40.224Z,6160.00
2023-01-17T11:35:40.242Z,6264.00
2023-01-17T11:36:40.199Z,6540.00
2023-01-17T11:37:40.199Z,6932.00
2023-01-17T11:38:40.179Z,7016.00
2023-01-17T11:39:40.195Z,6860.00
2023-01-17T11:40:40.159Z,6912.00
2023-01-17T11:41:40.141Z,7100.00
2023-01-17T11:42:40.131Z,6676.00
2023-01-17T11:43:40.121Z,6120.00
2023-01-17T11:44:40.116Z,5544.00
2023-01-17T11:45:40.548Z,4892.00
2023-01-17T11:46:40.141Z,4504.00
2023-01-17T11:47:40.070Z,4644.00
2023-01-17T11:48:40.067Z,5108.00
2023-01-17T11:49:40.073Z,6068.00
2023-01-17T11:50:40.040Z,6492.00
2023-01-17T11:51:40.054Z,7076.00
2023-01-17T11:52:40.016Z,7312.00
2023-01-17T11:53:40.035Z,7084.00
2023-01-17T11:54:40.007Z,7740.00
2023-01-17T11:55:39.988Z,8648.00
2023-01-17T11:56:39.969Z,8392.00
2023-01-17T11:57:39.971Z,7036.00
2023-01-17T11:58:39.950Z,6372.00
2023-01-17T11:59:39.942Z,5660.00
2023-01-17T12:00:39.929Z,4980.00
2023-01-17T12:01:39.923Z,4476.00
2023-01-17T12:02:39.931Z,4192.00
2023-01-17T12:03:39.962Z,4084.00
2023-01-17T12:04:39.907Z,4076.00
2023-01-17T12:05:39.872Z,4116.00
2023-01-17T12:06:56.229Z,4180.00
2023-01-17T12:07:40.869Z,4172.00
2023-01-17T12:08:39.829Z,4088.00
2023-01-17T12:09:39.829Z,4076.00
2023-01-17T12:10:39.811Z,4028.00
2023-01-17T12:11:39.799Z,4064.00
2023-01-17T12:12:39.817Z,4116.00
2023-01-17T12:13:39.814Z,4288.00
2023-01-17T12:14:39.768Z,4492.00
2023-01-17T12:15:39.770Z,4440.00
2023-01-17T12:16:39.741Z,4380.00
2023-01-17T12:17:39.743Z,4400.00
2023-01-17T12:18:39.723Z,4460.00
2023-01-17T12:19:39.731Z,4532.00
2023-01-17T12:20:39.689Z,4496.00
2023-01-17T12:21:39.687Z,4368.00
2023-01-17T12:22:39.669Z,4208.00
2023-01-17T12:23:39.659Z,4176.00
2023-01-17T12:24:39.648Z,4156.00
2023-01-17T12:25:39.664Z,4192.00
2023-01-17T12:26:39.632Z,4264.00
2023-01-17T12:27:40.049Z,4288.00
2023-01-17T12:28:39.603Z,4384.00
2023-01-17T12:29:39.589Z,4560.00
2023-01-17T12:30:39.578Z,4476.00
2023-01-17T12:31:39.658Z,4480.00
2023-01-17T12:32:39.559Z,4540.00
2023-01-17T12:33:39.558Z,4668.00
2023-01-17T12:34:39.538Z,4736.00
2023-01-17T12:35:39.528Z,4700.00
2023-01-17T12:36:39.509Z,4748.00
2023-01-17T12:37:39.525Z,4940.00
2023-01-17T12:38:39.503Z,4800.00
2023-01-17T12:39:39.476Z,4988.00
2023-01-17T12:40:39.468Z,5280.00
2023-01-17T12:41:39.456Z,5556.00
2023-01-17T12:42:39.459Z,5752.00
2023-01-17T12:43:39.453Z,5784.00